Time;durP1;ratioP1;P1;durP2;ratioP2;P2;SDS_P1;SDS_P2;PMS_P1;PMS_P2;Temp;Humidity;BMP_temperature;BMP_pressure;BME280_temperature;BME280_humidity;BME280_pressure;Samples;Min_cycle;Max_cycle;Signal;HPM_P1;HPM_P2
2022/08/22 00:00:24;;;;;;;7.57;2.70;;;17.70;99.90;;;;;;5067776;28;20039;-74
2022/08/22 00:03:01;;;;;;;9.18;2.72;;;17.70;99.90;;;;;;5068364;28;20052;-72
2022/08/22 00:05:49;;;;;;;7.97;2.42;;;17.60;99.90;;;;;;5090098;28;20107;-72
2022/08/22 00:08:27;;;;;;;11.93;3.15;;;17.60;99.90;;;;;;5069374;28;20044;-73
2022/08/22 00:11:02;;;;;;;13.90;3.75;;;17.60;99.90;;;;;;5083359;28;20072;-73
2022/08/22 00:13:48;;;;;;;8.02;3.10;;;17.50;99.90;;;;;;5073036;28;20040;-73
2022/08/22 00:16:22;;;;;;;10.35;2.95;;;17.50;99.90;;;;;;5041027;28;20032;-73
2022/08/22 00:19:03;;;;;;;9.55;2.78;;;17.50;99.90;;;;;;5068197;28;20121;-73
2022/08/22 00:21:50;;;;;;;10.10;3.33;;;17.50;99.90;;;;;;5072898;28;20388;-73
2022/08/22 00:24:37;;;;;;;8.27;2.70;;;17.50;99.90;;;;;;5091766;28;20043;-73
2022/08/22 00:27:16;;;;;;;7.38;2.88;;;17.50;99.90;;;;;;5101310;28;20068;-73
2022/08/22 00:29:48;;;;;;;9.27;2.90;;;17.50;99.90;;;;;;5073001;28;20043;-73
2022/08/22 00:32:31;;;;;;;8.07;3.15;;;17.40;99.90;;;;;;5102697;28;20044;-73
2022/08/22 00:35:12;;;;;;;8.38;2.65;;;17.50;99.90;;;;;;5069220;28;20087;-72
2022/08/22 00:37:46;;;;;;;7.18;3.00;;;17.40;99.90;;;;;;5069255;28;20124;-73
2022/08/22 00:40:41;;;;;;;9.23;2.97;;;17.40;99.90;;;;;;5069326;28;20032;-73
2022/08/22 00:43:38;;;;;;;10.25;3.42;;;17.40;99.90;;;;;;5072728;28;20039;-72
2022/08/22 00:46:28;;;;;;;8.40;3.10;;;17.40;99.90;;;;;;5069795;28;20036;-72
2022/08/22 00:49:11;;;;;;;9.57;3.20;;;17.40;99.90;;;;;;5084967;28;20036;-72
2022/08/22 00:52:17;;;;;;;8.13;2.92;;;17.40;99.90;;;;;;5100464;28;20064;-72
2022/08/22 00:54:55;;;;;;;8.35;3.08;;;17.40;99.90;;;;;;5066917;28;20033;-73
2022/08/22 00:57:26;;;;;;;7.13;2.80;;;17.40;99.90;;;;;;5068605;28;20032;-73
2022/08/22 01:00:17;;;;;;;6.13;2.40;;;17.40;99.90;;;;;;5067231;28;20079;-73
2022/08/22 01:02:43;;;;;;;7.30;2.65;;;17.30;99.90;;;;;;5063614;28;20043;-73
2022/08/22 01:05:24;;;;;;;7.90;2.75;;;17.30;99.90;;;;;;5084559;28;20064;-73
2022/08/22 01:08:26;;;;;;;8.48;2.50;;;17.20;99.90;;;;;;5079053;28;20071;-73
2022/08/22 01:11:16;;;;;;;12.43;3.33;;;17.20;99.90;;;;;;5065987;28;20444;-73
2022/08/22 01:14:07;;;;;;;10.35;3.28;;;17.20;99.90;;;;;;5066096;28;20105;-73
2022/08/22 01:16:53;;;;;;;5.85;2.70;;;17.20;99.90;;;;;;5072994;28;20075;-73
2022/08/22 01:19:22;;;;;;;7.88;3.45;;;17.10;99.90;;;;;;5094948;28;20138;-73
2022/08/22 01:22:26;;;;;;;10.70;3.70;;;17.10;99.90;;;;;;5071825;28;20050;-73
2022/08/22 01:25:17;;;;;;;6.13;2.88;;;17.10;99.90;;;;;;5078583;28;20046;-73
2022/08/22 01:28:17;;;;;;;12.18;3.50;;;17.10;99.90;;;;;;5074667;28;20039;-73
2022/08/22 01:31:05;;;;;;;7.93;2.80;;;17.00;99.90;;;;;;5081941;28;20089;-73
2022/08/22 01:33:39;;;;;;;8.25;2.95;;;17.00;99.90;;;;;;5074785;28;20036;-73
2022/08/22 01:36:33;;;;;;;8.95;3.20;;;17.00;99.90;;;;;;5058009;28;20072;-73
2022/08/22 01:39:11;;;;;;;10.63;3.60;;;16.90;99.90;;;;;;5077948;28;20043;-73
2022/08/22 01:42:19;;;;;;;9.60;3.63;;;16.90;99.90;;;;;;5089922;28;20494;-73
2022/08/22 01:44:53;;;;;;;11.18;3.60;;;16.90;99.90;;;;;;5074564;28;20051;-73
2022/08/22 01:47:57;;;;;;;10.55;3.35;;;16.90;99.90;;;;;;5074591;28;20409;-73
2022/08/22 01:50:36;;;;;;;8.13;2.83;;;16.90;99.90;;;;;;5074135;28;20119;-73
2022/08/22 01:53:17;;;;;;;7.15;2.78;;;16.80;99.90;;;;;;5074544;28;20047;-73
2022/08/22 01:56:05;;;;;;;8.88;3.35;;;16.80;99.90;;;;;;5070457;28;20173;-73
2022/08/22 01:58:35;;;;;;;7.95;3.40;;;16.70;99.90;;;;;;5073879;28;20080;-73
2022/08/22 02:01:13;;;;;;;7.10;3.33;;;16.70;99.90;;;;;;5074216;28;20051;-73
2022/08/22 02:04:02;;;;;;;5.15;3.00;;;16.60;99.90;;;;;;5074615;28;20109;-73
2022/08/22 02:06:45;;;;;;;6.38;3.72;;;16.70;99.90;;;;;;5083223;28;20043;-73
2022/08/22 02:09:52;;;;;;;9.00;3.80;;;16.70;99.90;;;;;;5094393;28;20048;-73
2022/08/22 02:12:42;;;;;;;8.52;3.30;;;16.70;99.90;;;;;;5082874;28;20040;-73
2022/08/22 02:15:26;;;;;;;14.52;3.50;;;16.60;99.90;;;;;;5074293;28;20039;-73
2022/08/22 02:18:04;;;;;;;10.68;4.32;;;16.60;99.90;;;;;;5074199;28;20139;-73
2022/08/22 02:20:38;;;;;;;9.55;3.58;;;16.70;99.90;;;;;;5070952;28;20048;-73
2022/08/22 02:23:20;;;;;;;11.18;3.90;;;16.60;99.90;;;;;;5073266;28;20064;-73
2022/08/22 02:26:03;;;;;;;;;;;16.60;99.90;;;;;;5070511;28;20036;-73
2022/08/22 02:28:48;;;;;;;10.52;4.10;;;16.60;99.90;;;;;;5047841;28;20010;-73
2022/08/22 02:31:33;;;;;;;10.15;3.90;;;16.60;99.90;;;;;;5057610;28;20876;-73
2022/08/22 02:34:01;;;;;;;10.32;3.60;;;16.60;99.90;;;;;;5077667;28;20054;-73
2022/08/22 02:36:42;;;;;;;8.88;3.60;;;16.60;99.90;;;;;;5060665;28;20036;-73
2022/08/22 02:39:37;;;;;;;7.15;3.70;;;16.60;99.90;;;;;;5076860;28;20652;-73
2022/08/22 02:42:21;;;;;;;11.45;4.40;;;16.60;99.90;;;;;;5095487;28;20092;-73
2022/08/22 02:45:00;;;;;;;9.85;4.18;;;16.60;99.90;;;;;;5076839;28;20062;-73
2022/08/22 02:47:56;;;;;;;9.68;4.07;;;16.60;99.90;;;;;;5059184;28;20054;-73
2022/08/22 02:50:26;;;;;;;7.65;3.80;;;16.60;99.90;;;;;;5068789;28;20059;-73
2022/08/22 02:53:08;;;;;;;9.20;3.58;;;16.60;99.90;;;;;;5075171;28;20043;-73
2022/08/22 02:56:15;;;;;;;10.85;4.03;;;16.60;99.90;;;;;;5074263;28;20085;-73
2022/08/22 02:58:58;;;;;;;9.80;4.15;;;16.60;99.90;;;;;;5073959;28;20048;-73
2022/08/22 03:01:36;;;;;;;12.57;4.07;;;16.60;99.90;;;;;;5075239;28;20561;-73
2022/08/22 03:04:45;;;;;;;12.20;4.07;;;16.60;99.90;;;;;;5088869;28;20064;-73
2022/08/22 03:07:20;;;;;;;10.65;4.15;;;16.60;99.90;;;;;;5037185;28;20098;-73
2022/08/22 03:09:58;;;;;;;12.52;4.50;;;16.60;99.90;;;;;;5074400;28;20569;-73
2022/08/22 03:12:44;;;;;;;9.02;4.00;;;16.60;99.90;;;;;;5078350;28;20115;-73
2022/08/22 03:15:18;;;;;;;12.38;4.45;;;16.60;99.90;;;;;;5077042;28;20040;-73
2022/08/22 03:17:51;;;;;;;9.25;4.00;;;16.60;99.90;;;;;;5103247;28;20054;-73
2022/08/22 03:20:36;;;;;;;12.63;4.72;;;16.60;99.90;;;;;;5095781;28;20481;-73
2022/08/22 03:23:09;;;;;;;10.18;4.28;;;16.60;99.90;;;;;;5086894;28;20481;-73
2022/08/22 03:26:22;;;;;;;11.57;4.15;;;16.60;99.90;;;;;;5073444;28;20587;-73
2022/08/22 03:28:52;;;;;;;11.57;4.65;;;16.70;99.90;;;;;;5069427;28;20574;-72
2022/08/22 03:31:21;;;;;;;9.75;4.00;;;16.60;99.90;;;;;;5095866;28;20655;-73
2022/08/22 03:34:20;;;;;;;8.95;4.22;;;16.60;99.90;;;;;;5097389;28;20543;-73
2022/08/22 03:37:02;;;;;;;15.95;4.55;;;16.70;99.90;;;;;;5085576;28;20482;-73
2022/08/22 03:39:47;;;;;;;14.63;4.32;;;16.70;99.90;;;;;;5078383;28;20553;-72
2022/08/22 03:42:39;;;;;;;11.30;4.07;;;16.60;99.90;;;;;;5097267;28;20093;-73
2022/08/22 03:45:25;;;;;;;;;;;16.60;99.90;;;;;;5097692;28;20065;-73
2022/08/22 03:48:02;;;;;;;12.13;4.40;;;16.60;99.90;;;;;;5077005;28;20398;-73
2022/08/22 03:51:04;;;;;;;12.50;4.30;;;16.60;99.90;;;;;;5094879;28;20460;-73
2022/08/22 03:54:16;;;;;;;12.82;4.45;;;16.60;99.90;;;;;;5068812;28;20415;-72
2022/08/22 03:57:06;;;;;;;14.00;4.60;;;16.60;99.90;;;;;;5028658;28;20626;-72
2022/08/22 03:59:57;;;;;;;10.75;4.40;;;16.60;99.90;;;;;;5076497;28;20406;-73
2022/08/22 04:03:15;;;;;;;10.55;4.72;;;16.60;99.90;;;;;;5082775;28;20545;-73
2022/08/22 04:06:03;;;;;;;11.55;4.63;;;16.60;99.90;;;;;;5095310;28;20453;-73
2022/08/22 04:09:22;;;;;;;11.30;3.80;;;16.60;99.90;;;;;;5097505;28;20039;-72
2022/08/22 04:12:01;;;;;;;8.48;4.25;;;16.60;99.90;;;;;;4996602;28;20037;-72
2022/08/22 04:15:03;;;;;;;16.58;4.95;;;16.60;99.90;;;;;;5103075;28;20064;-72
2022/08/22 04:17:55;;;;;;;11.55;4.25;;;16.60;99.90;;;;;;5082507;28;20047;-72
2022/08/22 04:20:55;;;;;;;13.15;4.53;;;16.50;99.90;;;;;;5098584;28;20035;-72
2022/08/22 04:23:42;;;;;;;11.48;4.05;;;16.50;99.90;;;;;;5096262;28;20033;-72
2022/08/22 04:26:32;;;;;;;11.13;4.65;;;16.50;99.90;;;;;;5098643;28;20031;-72
2022/08/22 04:29:06;;;;;;;13.00;4.85;;;16.50;99.90;;;;;;5069686;28;20047;-72
2022/08/22 04:31:40;;;;;;;10.73;4.38;;;16.50;99.90;;;;;;5097665;28;20044;-72
2022/08/22 04:34:20;;;;;;;11.68;4.78;;;16.50;99.90;;;;;;5116393;28;20043;-72
2022/08/22 04:36:53;;;;;;;9.63;4.57;;;16.40;99.90;;;;;;5095938;28;20044;-72
2022/08/22 04:39:34;;;;;;;16.38;5.30;;;16.40;99.90;;;;;;5113070;28;20040;-72
2022/08/22 04:42:14;;;;;;;12.15;4.85;;;16.40;99.90;;;;;;5096113;28;20043;-72
2022/08/22 04:44:51;;;;;;;14.57;5.07;;;16.40;99.90;;;;;;5073772;28;20040;-72
2022/08/22 04:47:29;;;;;;;11.10;4.43;;;16.40;99.90;;;;;;5063013;28;20039;-73
2022/08/22 04:50:20;;;;;;;14.20;4.35;;;16.40;99.90;;;;;;5075345;28;20040;-73
2022/08/22 04:53:10;;;;;;;9.68;4.50;;;16.40;99.90;;;;;;5070667;28;20059;-73
2022/08/22 04:55:50;;;;;;;10.35;4.30;;;16.50;99.90;;;;;;5095973;28;20047;-72
2022/08/22 04:58:39;;;;;;;10.52;4.25;;;16.50;99.90;;;;;;5075272;28;20044;-73
2022/08/22 05:01:17;;;;;;;13.57;5.30;;;16.60;99.90;;;;;;5073855;28;20150;-74
2022/08/22 05:04:01;;;;;;;13.13;4.78;;;16.60;99.90;;;;;;5071489;28;20089;-73
2022/08/22 05:06:36;;;;;;;13.10;5.03;;;16.60;99.90;;;;;;5095728;28;20089;-73
2022/08/22 05:09:07;;;;;;;10.43;4.93;;;16.60;99.90;;;;;;5095128;28;20051;-72
2022/08/22 05:11:34;;;;;;;13.70;5.03;;;16.70;99.90;;;;;;5095509;28;20096;-73
2022/08/22 05:14:11;;;;;;;14.13;5.15;;;16.70;99.90;;;;;;5095594;28;20043;-73
2022/08/22 05:16:40;;;;;;;15.50;4.88;;;16.80;99.90;;;;;;5095361;28;20046;-73
2022/08/22 05:19:18;;;;;;;8.75;4.05;;;16.70;99.90;;;;;;5070990;28;20044;-73
2022/08/22 05:21:48;;;;;;;10.43;4.70;;;16.80;99.90;;;;;;5091815;28;20047;-73
2022/08/22 05:24:24;;;;;;;15.73;4.70;;;16.80;99.90;;;;;;5073177;28;20119;-73
2022/08/22 05:26:53;;;;;;;12.27;4.95;;;16.80;99.90;;;;;;5079729;28;20047;-73
2022/08/22 05:29:23;;;;;;;14.70;4.93;;;16.90;99.90;;;;;;5074436;28;20052;-73
2022/08/22 05:31:57;;;;;;;13.32;4.57;;;16.90;99.90;;;;;;5075057;28;20383;-73
2022/08/22 05:34:27;;;;;;;12.55;4.35;;;16.90;99.90;;;;;;5074849;28;20067;-73
2022/08/22 05:37:03;;;;;;;12.05;4.57;;;16.90;99.90;;;;;;5106398;28;20046;-73
2022/08/22 05:39:30;;;;;;;13.95;5.00;;;16.90;99.90;;;;;;5094618;28;20088;-73
2022/08/22 05:41:59;;;;;;;12.32;4.85;;;17.00;99.90;;;;;;5095022;28;20047;-73
2022/08/22 05:44:30;;;;;;;10.85;4.07;;;17.00;99.90;;;;;;5060676;28;20051;-73
2022/08/22 05:47:20;;;;;;;11.25;4.28;;;17.00;99.90;;;;;;5094770;28;20044;-73
2022/08/22 05:50:11;;;;;;;15.32;4.80;;;17.00;99.90;;;;;;5093872;28;20055;-73
2022/08/22 05:53:08;;;;;;;14.80;4.15;;;17.10;99.90;;;;;;5075427;28;20036;-73
2022/08/22 05:55:47;;;;;;;11.05;4.32;;;17.10;99.90;;;;;;5061798;28;20064;-73
2022/08/22 05:58:34;;;;;;;11.35;4.47;;;17.20;99.90;;;;;;5074313;28;20039;-73
2022/08/22 06:01:25;;;;;;;10.00;4.57;;;17.20;99.90;;;;;;5074215;28;20079;-73
2022/08/22 06:04:19;;;;;;;9.38;4.20;;;17.20;99.90;;;;;;5074155;28;20055;-73
2022/08/22 06:07:24;;;;;;;9.50;4.30;;;17.30;99.90;;;;;;5074062;28;20044;-73
2022/08/22 06:10:22;;;;;;;13.25;4.95;;;17.30;99.90;;;;;;5051323;28;20048;-73
2022/08/22 06:12:54;;;;;;;13.70;4.70;;;17.30;99.90;;;;;;5068365;28;20059;-73
2022/08/22 06:15:22;;;;;;;;;;;17.40;99.90;;;;;;5074837;28;20048;-73
2022/08/22 06:18:11;;;;;;;12.48;4.70;;;17.40;99.90;;;;;;5074004;28;19969;-73
2022/08/22 06:20:43;;;;;;;12.90;4.40;;;17.40;99.90;;;;;;5073755;28;20036;-73
2022/08/22 06:23:16;;;;;;;11.60;4.60;;;17.50;99.90;;;;;;5059874;28;20035;-72
2022/08/22 06:25:45;;;;;;;9.40;4.72;;;17.50;99.90;;;;;;5065473;28;20076;-72
2022/08/22 06:28:21;;;;;;;15.10;4.65;;;17.50;99.90;;;;;;5089627;28;20044;-72
2022/08/22 06:30:51;;;;;;;9.23;4.43;;;17.60;99.90;;;;;;5073082;28;20097;-72
2022/08/22 06:33:24;;;;;;;8.23;4.50;;;17.60;99.90;;;;;;5070417;28;20071;-73
2022/08/22 06:39:08;;;;;;;11.07;4.45;;;17.70;99.90;;;;;;5070130;28;20136;-72
2022/08/22 06:41:48;;;;;;;11.15;4.75;;;17.70;99.90;;;;;;5070478;28;20052;-72
2022/08/22 06:44:17;;;;;;;10.75;4.10;;;17.80;99.90;;;;;;5061923;28;20044;-72
2022/08/22 06:46:45;;;;;;;14.25;4.45;;;17.80;99.90;;;;;;5081847;28;20036;-72
2022/08/22 06:49:11;;;;;;;12.20;4.78;;;17.80;99.90;;;;;;5084737;28;20047;-72
2022/08/22 06:51:38;;;;;;;11.30;4.28;;;17.90;99.90;;;;;;5059769;28;20076;-72
2022/08/22 06:54:10;;;;;;;14.55;4.65;;;17.90;99.90;;;;;;5070608;28;20036;-72
2022/08/22 06:56:43;;;;;;;11.02;4.15;;;18.00;99.90;;;;;;5074694;28;20036;-72
2022/08/22 06:59:14;;;;;;;9.23;3.92;;;18.00;99.90;;;;;;5073196;28;20093;-72
2022/08/22 07:02:08;;;;;;;16.60;4.30;;;18.00;99.90;;;;;;5068052;28;20046;-72
2022/08/22 07:04:35;;;;;;;8.75;3.67;;;18.10;99.90;;;;;;5059314;28;20028;-72
2022/08/22 07:07:01;;;;;;;14.52;4.55;;;18.10;99.90;;;;;;5083538;28;20082;-72
2022/08/22 07:09:37;;;;;;;11.90;3.83;;;18.20;99.90;;;;;;5072686;28;20499;-72
2022/08/22 07:12:12;;;;;;;12.65;4.15;;;18.30;99.90;;;;;;5074552;28;20106;-72
2022/08/22 07:14:42;;;;;;;12.07;4.50;;;18.30;99.90;;;;;;5070231;28;20047;-72
2022/08/22 07:17:20;;;;;;;13.20;4.10;;;18.30;99.90;;;;;;5058291;28;20033;-72
2022/08/22 07:20:15;;;;;;;9.00;3.88;;;18.40;99.90;;;;;;5077055;28;20044;-72
2022/08/22 07:22:52;;;;;;;11.13;3.88;;;18.40;99.90;;;;;;5058124;28;20110;-72
2022/08/22 07:25:17;;;;;;;13.48;4.35;;;18.50;99.90;;;;;;5072296;28;20050;-73
2022/08/22 07:28:01;;;;;;;10.90;3.60;;;18.50;99.90;;;;;;5077106;28;20039;-72
2022/08/22 07:30:41;;;;;;;11.30;4.20;;;18.60;99.90;;;;;;5075271;28;20070;-73
2022/08/22 07:33:21;;;;;;;11.55;4.10;;;18.70;99.90;;;;;;5077151;28;20071;-73
2022/08/22 07:35:59;;;;;;;16.08;4.45;;;18.80;99.90;;;;;;5047707;28;20048;-73
2022/08/22 07:38:41;;;;;;;12.65;3.95;;;18.90;99.90;;;;;;5060560;28;20043;-73
2022/08/22 07:41:14;;;;;;;13.23;3.65;;;19.00;99.90;;;;;;5054057;28;20043;-73
2022/08/22 07:43:54;;;;;;;11.13;3.97;;;19.00;99.90;;;;;;5066494;28;20044;-73
2022/08/22 07:46:34;;;;;;;11.05;3.75;;;19.10;99.90;;;;;;5079187;28;20044;-72
2022/08/22 07:49:03;;;;;;;13.20;3.95;;;19.20;99.90;;;;;;5076815;28;20502;-72
2022/08/22 07:51:46;;;;;;;11.68;3.80;;;19.30;99.90;;;;;;5063107;28;20536;-73
2022/08/22 07:54:22;;;;;;;13.07;3.47;;;19.40;99.90;;;;;;5065753;28;20036;-73
2022/08/22 07:57:03;;;;;;;10.15;3.38;;;19.50;99.90;;;;;;5083555;28;20098;-73
2022/08/22 07:59:32;;;;;;;12.02;3.70;;;19.60;99.90;;;;;;5079494;28;20055;-73
2022/08/22 08:01:59;;;;;;;11.52;3.50;;;19.70;99.90;;;;;;5066727;28;20058;-73
2022/08/22 08:04:30;;;;;;;11.63;3.45;;;19.70;99.90;;;;;;5082884;28;20535;-73
2022/08/22 08:07:01;;;;;;;12.68;3.30;;;19.80;99.90;;;;;;5046255;28;20051;-73
2022/08/22 08:09:34;;;;;;;10.18;3.35;;;19.80;99.90;;;;;;5066048;28;20480;-72
2022/08/22 08:12:02;;;;;;;;;;;19.80;99.90;;;;;;5062841;28;20045;-72
2022/08/22 08:14:29;;;;;;;10.52;3.33;;;19.90;99.90;;;;;;5064524;28;19916;-72
2022/08/22 08:17:06;;;;;;;13.98;3.63;;;19.90;99.90;;;;;;5063758;28;20040;-73
2022/08/22 08:19:36;;;;;;;11.05;2.80;;;20.00;99.90;;;;;;5066013;28;20049;-73
2022/08/22 08:22:03;;;;;;;11.75;2.97;;;20.10;99.90;;;;;;5067713;28;20043;-72
2022/08/22 08:24:35;;;;;;;15.07;3.28;;;20.20;99.90;;;;;;5066798;28;20050;-73
2022/08/22 08:30:10;;;;;;;12.07;2.65;;;20.30;99.90;;;;;;5085018;28;20498;-73
2022/08/22 08:32:38;;;;;;;10.15;2.80;;;20.30;99.90;;;;;;5069725;28;20040;-73
2022/08/22 08:35:22;;;;;;;12.38;2.70;;;20.30;99.90;;;;;;5063056;28;20062;-74
2022/08/22 08:38:21;;;;;;;10.18;2.70;;;20.30;99.90;;;;;;5068405;28;20534;-73
2022/08/22 08:41:15;;;;;;;12.35;2.72;;;20.40;99.90;;;;;;5061370;28;20039;-73
2022/08/22 08:44:16;;;;;;;12.45;2.97;;;20.40;99.90;;;;;;5060742;28;20039;-73
2022/08/22 08:47:14;;;;;;;14.38;4.80;;;20.40;99.90;;;;;;5053985;28;20078;-73
2022/08/22 08:50:13;;;;;;;11.85;3.38;;;20.50;99.90;;;;;;5091288;28;20441;-73
2022/08/22 08:53:16;;;;;;;11.60;3.05;;;20.60;99.90;;;;;;5069381;28;20479;-72
2022/08/22 08:56:17;;;;;;;6.60;2.53;;;20.70;99.90;;;;;;5075518;28;20460;-73
2022/08/22 08:59:12;;;;;;;13.38;3.00;;;20.80;99.90;;;;;;5067892;28;20036;-73
2022/08/22 09:01:56;;;;;;;11.30;3.03;;;20.90;99.90;;;;;;5063703;28;20032;-73
2022/08/22 09:04:36;;;;;;;8.98;2.88;;;21.00;99.90;;;;;;5092718;28;20059;-73
2022/08/22 09:07:33;;;;;;;12.85;3.20;;;21.20;99.90;;;;;;5069597;28;20433;-73
2022/08/22 09:10:10;;;;;;;13.55;3.35;;;21.30;99.90;;;;;;5090383;28;20040;-72
2022/08/22 09:13:00;;;;;;;12.20;3.20;;;21.40;99.90;;;;;;5067187;28;20454;-73
2022/08/22 09:15:48;;;;;;;17.15;4.35;;;21.60;99.90;;;;;;5068263;28;20458;-73
2022/08/22 09:18:28;;;;;;;10.13;3.10;;;21.70;99.90;;;;;;5075847;28;20036;-74
2022/08/22 09:21:32;;;;;;;15.85;3.78;;;22.00;99.90;;;;;;5059815;28;20042;-73
2022/08/22 09:24:15;;;;;;;12.93;2.90;;;22.20;99.90;;;;;;5075448;28;20089;-73
2022/08/22 09:26:48;;;;;;;10.75;3.53;;;22.50;99.90;;;;;;5092064;28;20028;-73
2022/08/22 09:29:54;;;;;;;9.98;3.00;;;22.50;99.90;;;;;;5097995;28;20097;-73
2022/08/22 09:32:32;;;;;;;12.70;3.05;;;22.60;99.90;;;;;;5089443;28;20283;-73
2022/08/22 09:35:17;;;;;;;10.35;3.10;;;22.70;99.90;;;;;;5073324;28;20051;-73
2022/08/22 09:38:01;;;;;;;8.70;2.55;;;22.70;99.90;;;;;;5072789;28;20051;-73
2022/08/22 09:40:29;;;;;;;10.20;2.72;;;22.80;99.90;;;;;;5069317;28;20071;-73
2022/08/22 09:43:07;;;;;;;10.70;2.75;;;22.80;99.90;;;;;;5072150;28;20142;-73
2022/08/22 09:45:39;;;;;;;7.45;2.67;;;22.90;99.90;;;;;;5069743;28;20040;-73
2022/08/22 09:48:37;;;;;;;10.00;2.70;;;23.00;99.90;;;;;;5072302;28;20046;-73
2022/08/22 09:51:13;;;;;;;12.23;3.40;;;23.10;99.90;;;;;;5071970;28;20035;-73
2022/08/22 09:54:11;;;;;;;8.60;2.72;;;23.10;99.90;;;;;;5086529;28;20043;-73
2022/08/22 09:56:53;;;;;;;7.63;2.47;;;23.10;99.90;;;;;;5087812;28;20044;-73
2022/08/22 09:59:24;;;;;;;9.90;2.72;;;23.30;99.90;;;;;;5068706;28;20046;-73
2022/08/22 10:02:26;;;;;;;10.18;2.80;;;23.30;99.90;;;;;;5072200;28;20028;-73
2022/08/22 10:05:12;;;;;;;8.63;2.80;;;23.40;99.90;;;;;;5071746;28;20402;-73
2022/08/22 10:07:53;;;;;;;12.75;2.97;;;23.40;99.90;;;;;;5094195;28;20047;-73
2022/08/22 10:11:05;;;;;;;9.18;2.33;;;23.40;99.90;;;;;;5089223;28;20038;-73
2022/08/22 10:13:50;;;;;;;9.13;2.47;;;23.50;99.90;;;;;;5067289;28;20048;-73
2022/08/22 10:16:23;;;;;;;8.48;1.98;;;23.50;99.90;;;;;;5069407;28;20033;-73
2022/08/22 10:19:12;;;;;;;6.55;1.90;;;23.40;99.90;;;;;;5056377;28;20089;-73
2022/08/22 10:22:05;;;;;;;7.85;2.60;;;23.40;99.90;;;;;;5043088;28;20072;-73
2022/08/22 10:25:08;;;;;;;10.88;2.50;;;23.40;99.90;;;;;;5062448;28;20094;-73
2022/08/22 10:27:49;;;;;;;8.45;2.05;;;23.40;99.90;;;;;;5048482;28;20068;-73
2022/08/22 10:30:24;;;;;;;8.30;2.65;;;23.50;99.90;;;;;;5068571;28;20036;-73
2022/08/22 10:33:26;;;;;;;10.15;2.40;;;23.60;99.90;;;;;;5075425;28;20466;-73
2022/08/22 10:35:59;;;;;;;9.93;3.38;;;23.60;99.90;;;;;;5085015;28;20524;-73
2022/08/22 10:38:41;;;;;;;9.88;2.40;;;23.80;99.90;;;;;;5054052;28;20052;-73
2022/08/22 10:41:35;;;;;;;7.90;2.20;;;23.90;99.90;;;;;;5072728;28;20499;-73
2022/08/22 10:44:20;;;;;;;6.07;2.17;;;24.10;99.90;;;;;;5058154;28;20051;-73
2022/08/22 10:46:52;;;;;;;7.68;2.40;;;24.30;99.90;;;;;;5058095;28;20044;-74
2022/08/22 10:49:33;;;;;;;9.43;2.30;;;24.50;99.90;;;;;;5054867;28;20051;-72
2022/08/22 10:52:10;;;;;;;7.35;2.10;;;24.60;99.50;;;;;;5085412;28;20028;-73
2022/08/22 10:54:48;;;;;;;6.80;2.50;;;24.90;99.20;;;;;;5060292;28;20036;-73
2022/08/22 10:57:17;;;;;;;7.38;2.28;;;25.10;99.90;;;;;;5060349;28;20040;-75
2022/08/22 10:59:50;;;;;;;9.88;2.45;;;25.40;98.40;;;;;;5060290;28;20118;-75
2022/08/22 11:02:52;;;;;;;9.30;2.28;;;25.60;98.90;;;;;;5055179;28;20040;-74
2022/08/22 11:05:32;;;;;;;6.75;2.03;;;25.70;96.70;;;;;;5077995;28;20502;-74
2022/08/22 11:08:49;;;;;;;7.75;2.25;;;25.80;97.90;;;;;;5060808;28;20054;-74
2022/08/22 11:11:38;;;;;;;6.90;1.90;;;26.10;96.40;;;;;;5053004;28;20059;-74
2022/08/22 11:14:34;;;;;;;7.80;2.22;;;26.20;93.30;;;;;;5072712;28;20483;-73
2022/08/22 11:17:03;;;;;;;10.05;2.22;;;26.20;92.30;;;;;;5061236;28;20054;-73
2022/08/22 11:19:42;;;;;;;8.02;2.50;;;26.20;93.00;;;;;;5094923;28;20097;-74
2022/08/22 11:22:36;;;;;;;9.90;3.28;;;26.20;93.90;;;;;;5067618;28;20121;-74
2022/08/22 11:25:16;;;;;;;7.05;2.00;;;26.40;93.20;;;;;;5069833;28;20093;-74
2022/08/22 11:28:07;;;;;;;6.97;2.25;;;26.70;93.50;;;;;;5068033;28;20068;-74
2022/08/22 11:30:43;;;;;;;7.30;2.13;;;27.00;92.20;;;;;;5066449;28;20047;-74
2022/08/22 11:33:23;;;;;;;8.40;2.25;;;27.40;91.00;;;;;;5066868;28;20443;-74
2022/08/22 11:35:53;;;;;;;9.02;2.10;;;27.70;90.30;;;;;;5097136;28;20044;-74
2022/08/22 11:38:37;;;;;;;6.15;2.10;;;27.90;88.10;;;;;;5067594;28;20127;-73
2022/08/22 11:41:11;;;;;;;7.22;2.80;;;28.10;84.20;;;;;;5065358;28;20070;-73
2022/08/22 11:43:47;;;;;;;5.03;2.03;;;28.10;83.70;;;;;;5069717;28;20114;-73
2022/08/22 11:46:26;;;;;;;7.30;2.15;;;27.80;84.20;;;;;;5065803;28;20044;-73
2022/08/22 11:49:15;;;;;;;9.70;2.30;;;27.60;82.30;;;;;;5073048;28;20093;-73
2022/08/22 11:51:56;;;;;;;5.95;1.95;;;27.40;84.90;;;;;;5077023;28;20048;-74
2022/08/22 11:54:59;;;;;;;8.90;2.20;;;27.30;86.80;;;;;;5076708;28;20051;-73
2022/08/22 11:57:44;;;;;;;5.95;1.80;;;27.40;87.80;;;;;;5067330;28;20046;-73
2022/08/22 12:00:13;;;;;;;6.22;2.10;;;27.40;87.80;;;;;;5095613;28;20513;-73
2022/08/22 12:03:03;;;;;;;7.50;2.00;;;27.50;88.10;;;;;;5096991;28;20044;-73
2022/08/22 12:05:34;;;;;;;7.10;2.10;;;27.80;88.70;;;;;;5095932;28;20048;-73
2022/08/22 12:08:15;;;;;;;10.45;2.10;;;28.10;85.50;;;;;;5065050;28;20044;-73
2022/08/22 12:11:12;;;;;;;9.65;2.58;;;28.40;84.30;;;;;;5101653;28;20044;-73
2022/08/22 12:13:48;;;;;;;8.30;2.50;;;28.60;83.80;;;;;;5060510;28;20582;-74
2022/08/22 12:16:19;;;;;;;7.78;2.05;;;28.80;81.40;;;;;;5075376;28;20521;-73
2022/08/22 12:18:57;;;;;;;6.22;2.40;;;28.90;77.50;;;;;;5049453;28;20047;-73
2022/08/22 12:21:36;;;;;;;9.70;2.60;;;28.90;78.70;;;;;;5070916;28;20145;-73
2022/08/22 12:24:20;;;;;;;9.07;2.10;;;29.10;79.60;;;;;;5064965;28;20035;-73
2022/08/22 12:27:07;;;;;;;7.43;2.00;;;29.10;76.40;;;;;;5099437;28;20046;-73
2022/08/22 12:30:03;;;;;;;6.60;2.20;;;29.20;80.10;;;;;;5087668;28;20062;-73
2022/08/22 12:32:49;;;;;;;5.50;1.77;;;29.40;78.10;;;;;;5062817;28;20056;-73
2022/08/22 12:35:39;;;;;;;7.70;2.28;;;29.70;76.80;;;;;;5085258;28;20036;-74
2022/08/22 12:38:15;;;;;;;9.02;2.95;;;29.80;76.10;;;;;;5081609;28;20098;-73
2022/08/22 12:41:14;;;;;;;8.75;2.25;;;29.70;75.70;;;;;;5071370;28;20036;-74
2022/08/22 12:43:50;;;;;;;6.65;1.83;;;29.70;77.00;;;;;;5072459;28;20048;-74
2022/08/22 12:46:42;;;;;;;8.45;2.13;;;29.60;77.40;;;;;;5054256;28;20032;-73
2022/08/22 12:49:37;;;;;;;8.00;2.22;;;29.50;78.10;;;;;;5059934;28;20058;-73
2022/08/22 12:52:44;;;;;;;6.85;2.45;;;29.40;76.30;;;;;;5091189;28;20047;-73
2022/08/22 12:55:22;;;;;;;8.20;2.10;;;29.30;74.50;;;;;;5086875;28;20048;-73
2022/08/22 12:58:12;;;;;;;6.78;2.10;;;29.20;73.90;;;;;;5085990;28;20046;-73
2022/08/22 13:00:44;;;;;;;6.18;1.98;;;29.20;75.20;;;;;;5085211;28;20043;-73
2022/08/22 13:03:31;;;;;;;6.85;2.20;;;29.30;75.90;;;;;;5087654;28;20062;-73
2022/08/22 13:06:42;;;;;;;8.77;2.08;;;29.40;76.10;;;;;;5069629;28;20068;-73
2022/08/22 13:09:17;;;;;;;8.88;2.10;;;29.60;75.30;;;;;;5071148;28;20086;-74
2022/08/22 13:11:45;;;;;;;11.05;2.53;;;29.70;75.70;;;;;;5083565;28;20047;-74
2022/08/22 13:14:17;;;;;;;7.35;2.13;;;29.50;75.50;;;;;;5065347;28;20090;-73
2022/08/22 13:16:48;;;;;;;6.63;2.10;;;29.40;75.90;;;;;;5084521;28;20716;-74
2022/08/22 13:19:21;;;;;;;6.95;2.03;;;29.50;76.30;;;;;;5073939;28;20073;-74
2022/08/22 13:22:01;;;;;;;8.48;2.55;;;29.90;77.10;;;;;;5068082;28;20036;-73
2022/08/22 13:24:41;;;;;;;13.05;2.53;;;30.20;75.20;;;;;;5054786;28;20044;-74
2022/08/22 13:27:15;;;;;;;8.77;2.00;;;30.20;73.10;;;;;;5071729;28;20109;-74
2022/08/22 13:30:00;;;;;;;8.43;2.50;;;30.10;74.50;;;;;;5070746;28;20101;-74
2022/08/22 13:32:34;;;;;;;7.75;1.90;;;29.90;75.30;;;;;;5068371;28;20032;-74
2022/08/22 13:35:00;;;;;;;9.35;2.60;;;29.80;76.10;;;;;;5071699;28;20032;-74
2022/08/22 13:37:47;;;;;;;7.15;2.10;;;29.70;75.10;;;;;;5074771;28;20040;-74
2022/08/22 13:40:24;;;;;;;8.35;2.50;;;29.70;76.00;;;;;;5074384;28;20039;-73
2022/08/22 13:42:55;;;;;;;9.30;2.78;;;29.60;74.20;;;;;;5092804;28;20070;-74
2022/08/22 13:45:24;;;;;;;9.55;2.42;;;29.50;74.30;;;;;;5074834;28;20047;-73
2022/08/22 13:48:00;;;;;;;6.18;1.92;;;29.40;75.30;;;;;;5070827;28;20055;-74
2022/08/22 13:50:29;;;;;;;6.88;2.28;;;29.30;78.10;;;;;;5070264;28;20039;-74
2022/08/22 13:53:01;;;;;;;9.23;2.20;;;29.20;75.70;;;;;;5065208;28;20426;-74
2022/08/22 13:55:50;;;;;;;9.73;1.95;;;29.20;76.00;;;;;;5079306;28;20043;-74
2022/08/22 13:58:30;;;;;;;8.23;2.28;;;29.00;79.40;;;;;;5080065;28;20050;-74
2022/08/22 14:01:14;;;;;;;9.27;2.45;;;28.90;77.10;;;;;;5094871;28;20120;-74
2022/08/22 14:03:48;;;;;;;7.82;2.33;;;28.80;76.40;;;;;;5059877;28;20047;-73
2022/08/22 14:06:30;;;;;;;9.57;1.90;;;28.70;81.30;;;;;;5075732;28;20032;-73